City's sites:

title views votes rating creation
?never been here 307 12 (3.08)  2010-02-07
?pastel negro 498 14 (2.50)  2010-02-07
?dizzy 227 8 (3.38)  2010-02-07
?two pictures from my desktop 770 16 (3.69)  2010-02-09
?broken clock realizes he is the last object left in the ... 333 10 (3.20)  2010-02-09
?heroes of old 526 19 (3.74)  2010-02-09
?mr. price 342 8 (3.25)  2010-02-09
?Music I Like - Part 1 513 10 (3.60)  2010-02-10
?Music I Like - Part 2 309 13 (3.54)  2010-02-10
?Music I Like - Part 3 456 13 (3.69)  2010-02-10
?Music I Like - Part 4 312 5 (3.20)  2010-02-10
?intense 449 9 (3.78)  2010-02-10
?oh SNAP 653 9 (3.22)  2010-02-10
?Music I Like - Part 5 449 9 (3.56)  2010-02-10
?SignlanguageTMND 296 14 (3.86)  2010-02-10
?lol internet (refresh) 448 6 (3.17)  2010-02-12
?Dumbeldore kills snape! 3,146 67 (4.03)  2010-02-12
?prairiedogeric10 tribute site 559 23 (3.96)  2010-02-13
?Legolewdite fan club 1,173 38 (3.87)  2010-02-13
?Connery retires 311 13 (3.85)  2010-02-13
?TOURNEY4: lol internet 473 7 (2.43)  2010-02-15
?Speed Deemon 858 23 (3.74)  2010-02-23
?Tribute: ASSCOCKredux 1,488 64 (3.91)  2010-02-23
?some light jazz with Robert De Niro 714 12 (3.50)  2010-02-23
?In What Language 1,363 34 (3.74)  2010-02-24
?go go go go go go go go go go go go go go go go ... 1,909 23 (3.74)  2010-02-24
?FEARCONDOM'S FAMILY Q U I L T 541 11 (3.55)  2010-02-24
?TEST 641 19 (3.84)  2010-02-26
?....someday, oh dream maker DUNANANANAN... 4,933 148 (3.96)  2010-02-28
?DOUGH FUNNIE HOMO DICKS 465 12 (3.58)  2010-03-01
?Using a concrete bricK 508 17 (3.82)  2010-03-01
?I had sex with a Kayan Tribe woman, little help plea... 742 11 (3.36)  2010-03-03
?Adventure 4 910 17 (3.65)  2010-03-03
?the standoff 378 9 (3.67)  2010-03-03
?alley children 455 11 (3.91)  2010-03-05
?Steven Seagal isn't impressed 9,627 180 (4.16)  2010-03-05
?Daunting Steps 210 7 (3.00)  2010-03-05
?Cruel and Unusual 5,997 163 (4.24)  2010-03-09
?DancehallTMND 381 10 (3.80)  2010-03-12
?FUCK OUT MY FACE 481 5 (2.60)  2010-03-18
?16, no dither 688 18 (3.94)  2010-03-20
?say hi to my girlfriend 869 16 (3.81)  2010-03-21
?TT 476 16 (3.88)  2010-03-23
?jimmm thinks about his next five 576 20 (3.80)  2010-03-24
?THE TELEKINETIC MAN 226 18 (3.50)  2010-03-25
?. 114 7 (2.71)  2010-03-26
?1! 272 17 (3.35)  2010-03-26
?Fake crocodile takes it to the limit one more time 580 9 (3.67)  2010-03-27
?croctheme 387 4 (3.25)  2010-03-27
?crocodile site 321 6 (3.50)  2010-03-27
?CROC MAKES A 187 LOOK EASY 163 6 (3.33)  2010-03-27
?New Croc SIte 151 5 (3.40)  2010-03-27
?L 286 19 (3.63)  2010-03-27
?crocodile sIte 189 10 (3.50)  2010-03-30
?Pleasant® 229 8 (3.38)  2010-03-30
?A Lovely Ride 187 13 (3.85)  2010-03-30
?It's glorious today 274 14 (3.64)  2010-04-01
?Na - Zu 352 10 (3.70)  2010-04-01
?WHO'NOWOWOWOW 405 5 (2.60)  2010-04-03
?part of your world 189 5 (3.00)  2010-04-04
?fff 167 4 (3.50)  2010-04-04
?FIve-star webiste 865 16 (1.94)  2010-04-04
?Captain Haddock 1,628 28 (3.86)  2010-04-04
?, 242 9 (3.33)  2010-04-05
?indnian 321 7 (2.71)  2010-04-05
?Ricky Manning tribute sIte will be Underway soon ! 193 3 (3.67)  2010-04-06
?Epic Domain Grab 184 6 (2.17)  2010-04-06
?retirement site 154 6 (2.83)  2010-04-06
?Paul newman doesn't drive a VAN 175 4 (3.00)  2010-04-06
?Vince McMan 289 7 (2.86)  2010-04-06
?LOL 255 5 (3.00)  2010-04-06
?wut 236 4 (2.75)  2010-04-06
?www.coachcarter.ytmnd.com 251 8 (1.88)  2010-04-06
?untitled 239 7 (2.14)  2010-04-09
?ExpirimennalTYTMND 300 8 (3.38)  2010-04-09
?jioejejejoijiojiojioejiejoijeoj 349 14 (3.79)  2010-04-09
?Jake Steele catches a fly ball 286 4 (3.50)  2010-04-10
?Jake Steele forgets the milk 265 3 (3.00)  2010-04-10
?Jake Steele just found his watch 252 4 (3.25)  2010-04-10
?Jake Steele grows up a bit 367 7 (2.86)  2010-04-10
?KRA2008 300 5 (2.60)  2010-04-10
?Fuck the world 684 26 (3.88)  2010-04-16
?a sexual guy 428 10 (2.30)  2010-05-12
?well 232 4 (4.25)  2010-09-03
?gay site you can watch while thinking about stuff 1,409 14 (4.07)  2010-09-13
?site dedicated to great warchief 1,187 12 (3.58)  2010-09-16
?38388 769 8 (3.88)  2010-09-16
?watching the world buzz by 427 4 (3.50)  2010-09-16
?what now 1,337 17 (3.94)  2010-09-16